Time;durP1;ratioP1;P1;durP2;ratioP2;P2;SDS_P1;SDS_P2;PMS_P1;PMS_P2;Temp;Humidity;BMP_temperature;BMP_pressure;BME280_temperature;BME280_humidity;BME280_pressure;Samples;Min_cycle;Max_cycle;Signal;HPM_P1;HPM_P2
2021/07/12 17:06:53;;;;;;;4.95;2.98;;;;;;;20.27;74.73;100210.78;1737557;80;21001;-75
2021/07/12 17:09:20;;;;;;;4.42;2.95;;;;;;;20.24;74.60;100196.39;1736860;81;20983;-75
2021/07/12 17:11:49;;;;;;;3.72;2.83;;;;;;;20.20;74.73;100182.54;1793544;79;21009;-77
2021/07/12 17:14:18;;;;;;;5.47;3.02;;;;;;;20.19;74.50;100177.37;1798083;79;21024;-76
2021/07/12 17:16:46;;;;;;;3.90;2.67;;;;;;;20.23;74.44;100174.11;1784397;79;21466;-76
2021/07/12 17:19:15;;;;;;;3.47;2.65;;;;;;;20.27;74.15;100177.26;1790390;79;20980;-78
2021/07/12 17:21:43;;;;;;;6.33;3.20;;;;;;;20.26;73.98;100172.89;1775420;79;21035;-77
2021/07/12 17:24:10;;;;;;;8.03;3.80;;;;;;;20.21;74.25;100161.91;1786214;78;21035;-75
2021/07/12 17:26:36;;;;;;;5.83;3.52;;;;;;;20.11;74.62;100155.52;1800544;79;22195;-76
2021/07/12 17:29:04;;;;;;;4.55;3.30;;;;;;;20.04;75.06;100156.45;1806438;79;21032;-75
2021/07/12 17:31:31;;;;;;;5.47;3.75;;;;;;;19.93;75.50;100147.88;1803260;79;21059;-77
2021/07/12 17:33:57;;;;;;;5.15;3.22;;;;;;;19.87;75.91;100139.23;1792429;78;21002;-75
2021/07/12 17:36:24;;;;;;;4.87;3.80;;;;;;;19.86;76.37;100130.88;1787576;78;21110;-75
2021/07/12 17:38:52;;;;;;;5.28;3.47;;;;;;;19.81;76.60;100128.45;1774665;80;21854;-72
2021/07/12 17:41:19;;;;;;;5.22;3.92;;;;;;;19.78;76.90;100126.95;1774585;80;20985;-73
2021/07/12 17:43:46;;;;;;;4.00;3.55;;;;;;;19.79;77.16;100135.34;1780869;78;21551;-75
2021/07/12 17:46:13;;;;;;;7.85;3.90;;;;;;;19.80;77.42;100122.27;1785056;79;21052;-75
2021/07/12 17:48:44;;;;;;;6.65;3.95;;;;;;;19.83;77.60;100119.20;1791195;78;21027;-75
2021/07/12 17:51:08;;;;;;;5.08;3.62;;;;;;;19.87;77.80;100111.60;1806088;79;22843;-75
2021/07/12 17:53:35;;;;;;;5.00;3.65;;;;;;;19.93;77.99;100110.86;1787318;78;20984;-74
2021/07/12 17:56:04;;;;;;;4.15;3.47;;;;;;;19.92;78.24;100119.41;1796498;78;21036;-76
2021/07/12 17:58:33;;;;;;;5.17;4.15;;;;;;;19.94;78.53;100121.39;1798600;79;21011;-75
2021/07/12 18:01:00;;;;;;;4.95;3.70;;;;;;;19.96;78.72;100119.85;1801749;78;21019;-75
2021/07/12 18:03:27;;;;;;;5.05;3.62;;;;;;;19.96;78.92;100123.36;1801600;77;22368;-76
2021/07/12 18:05:54;;;;;;;6.72;4.00;;;;;;;19.96;79.11;100116.66;1785954;77;21043;-76
2021/07/12 18:08:22;;;;;;;5.65;4.05;;;;;;;20.01;79.22;100106.73;1814122;78;21048;-73
2021/07/12 18:10:50;;;;;;;8.60;4.22;;;;;;;20.08;79.28;100114.34;1790457;78;21539;-73
2021/07/12 18:13:19;;;;;;;5.97;4.00;;;;;;;20.13;79.29;100107.05;1798661;78;21597;-74
2021/07/12 18:15:46;;;;;;;4.33;3.92;;;;;;;20.19;79.31;100108.98;1832402;78;22862;-75
2021/07/12 18:18:15;;;;;;;7.62;4.10;;;;;;;20.24;79.29;100110.57;1796054;78;21000;-77
2021/07/12 18:20:47;;;;;;;5.65;4.03;;;;;;;20.28;79.31;100118.57;1805632;78;21016;-74
2021/07/12 18:23:15;;;;;;;6.78;3.83;;;;;;;20.31;79.38;100124.88;1796415;77;21024;-74
2021/07/12 18:25:44;;;;;;;5.62;4.10;;;;;;;20.28;79.59;100125.28;1806347;79;21015;-73
2021/07/12 18:28:10;;;;;;;4.17;3.72;;;;;;;20.24;79.82;100127.48;1782668;79;21833;-77
2021/07/12 18:30:38;;;;;;;5.20;3.85;;;;;;;20.27;80.02;100129.81;1777572;78;21019;-74
2021/07/12 18:33:05;;;;;;;4.80;3.80;;;;;;;20.34;80.20;100134.39;1785492;77;21047;-74
2021/07/12 18:35:32;;;;;;;4.62;4.05;;;;;;;20.42;80.32;100134.27;1795416;78;21429;-73
2021/07/12 18:37:59;;;;;;;6.08;4.00;;;;;;;20.49;80.43;100140.06;1805660;78;21007;-72
2021/07/12 18:40:25;;;;;;;4.87;4.10;;;;;;;20.54;80.45;100145.67;1820999;77;22122;-72
2021/07/12 18:42:51;;;;;;;9.40;4.25;;;;;;;20.60;80.49;100150.79;1827481;78;20980;-73
2021/07/12 18:45:20;;;;;;;5.45;4.30;;;;;;;20.64;80.46;100152.56;1805865;78;21481;-73
2021/07/12 18:47:46;;;;;;;7.75;4.00;;;;;;;20.63;80.48;100158.45;1804950;78;21458;-76
2021/07/12 18:50:16;;;;;;;5.40;4.20;;;;;;;20.64;80.52;100172.18;1794454;79;20941;-75
2021/07/12 18:52:43;;;;;;;7.17;3.67;;;;;;;20.67;80.56;100175.84;1775995;80;21862;-75
2021/07/12 18:55:10;;;;;;;6.22;3.70;;;;;;;20.69;80.52;100190.41;1784382;79;20973;-74
2021/07/12 18:57:37;;;;;;;5.35;3.30;;;;;;;20.72;80.45;100205.61;1792652;79;20948;-74
2021/07/12 19:00:09;;;;;;;4.47;3.17;;;;;;;20.79;80.39;100215.07;1835462;78;20973;-73
2021/07/12 19:02:36;;;;;;;3.67;3.02;;;;;;;20.84;80.30;100222.88;1841162;78;20929;-73
2021/07/12 19:05:05;;;;;;;3.40;2.90;;;;;;;20.85;80.14;100234.45;1817216;78;21803;-73
2021/07/12 19:07:33;;;;;;;5.12;3.10;;;;;;;20.86;80.00;100234.77;1819458;77;21454;-73
2021/07/12 19:10:01;;;;;;;7.75;3.02;;;;;;;20.86;79.75;100225.38;1830777;78;20972;-73
2021/07/12 19:12:31;;;;;;;3.20;2.87;;;;;;;20.84;79.62;100232.76;1832744;78;21507;-73
2021/07/12 19:14:56;;;;;;;5.33;2.80;;;;;;;20.84;79.46;100243.50;1792401;78;20933;-75
2021/07/12 19:17:22;;;;;;;4.22;3.00;;;;;;;20.83;79.40;100247.20;1806940;78;22287;-72
2021/07/12 19:19:51;;;;;;;6.30;3.45;;;;;;;20.82;79.40;100241.01;1799671;78;20992;-74
2021/07/12 19:22:20;;;;;;;8.20;3.67;;;;;;;20.81;79.42;100245.23;1792619;79;21020;-73
2021/07/12 19:24:47;;;;;;;8.85;3.80;;;;;;;20.77;79.59;100242.11;1802366;79;20987;-73
2021/07/12 19:27:15;;;;;;;3.35;3.02;;;;;;;20.75;79.73;100243.30;1795488;78;20918;-73
2021/07/12 19:29:46;;;;;;;5.33;3.55;;;;;;;20.73;79.95;100244.01;1806137;79;39873;-74
2021/07/12 19:32:14;;;;;;;6.10;3.45;;;;;;;20.73;80.03;100235.45;1804436;78;20919;-74
2021/07/12 19:34:40;;;;;;;4.37;3.60;;;;;;;20.72;80.19;100239.16;1802709;79;21488;-73
2021/07/12 19:37:07;;;;;;;5.53;3.83;;;;;;;20.70;80.42;100230.47;1802411;79;21008;-73
2021/07/12 19:39:35;;;;;;;3.95;3.40;;;;;;;20.70;80.80;100224.27;1802517;79;20949;-73
2021/07/12 19:42:03;;;;;;;8.88;4.20;;;;;;;20.72;81.12;100225.73;1800865;79;21307;-73
2021/07/12 19:44:30;;;;;;;5.70;4.15;;;;;;;20.75;81.42;100220.00;1802485;78;21032;-73
2021/07/12 19:46:57;;;;;;;5.65;4.28;;;;;;;20.81;81.72;100214.36;1787795;79;21035;-73
2021/07/12 19:49:23;;;;;;;8.23;4.20;;;;;;;20.84;81.94;100205.91;1777482;78;20956;-73
2021/07/12 19:51:50;;;;;;;5.25;4.12;;;;;;;20.88;82.10;100199.67;1791371;78;21052;-73
2021/07/12 19:54:18;;;;;;;6.92;4.30;;;;;;;20.87;82.33;100194.81;1779827;79;21831;-73
2021/07/12 19:56:44;;;;;;;4.58;4.12;;;;;;;20.85;82.51;100189.64;1789055;79;21405;-74
2021/07/12 19:59:11;;;;;;;6.35;3.77;;;;;;;20.83;82.67;100182.78;1769492;79;21015;-73
2021/07/12 20:01:37;;;;;;;6.78;3.90;;;;;;;20.81;82.88;100173.58;1795720;78;21040;-73
2021/07/12 20:04:04;;;;;;;5.67;4.15;;;;;;;20.76;82.91;100153.73;1785887;79;20985;-73
2021/07/12 20:06:38;;;;;;;5.50;3.92;;;;;;;20.74;82.90;100143.16;1798697;79;22182;-73
2021/07/12 20:09:07;;;;;;;5.00;3.95;;;;;;;20.70;82.87;100133.02;1845489;77;21539;-73
2021/07/12 20:11:33;;;;;;;5.83;4.00;;;;;;;20.68;82.69;100147.16;1851150;77;20981;-73
2021/07/12 20:14:00;;;;;;;5.30;3.75;;;;;;;20.68;82.55;100171.30;1829934;77;21020;-72
2021/07/12 20:16:28;;;;;;;6.12;4.22;;;;;;;20.70;82.45;100181.33;1822977;77;21528;-73
2021/07/12 20:18:54;;;;;;;5.47;4.40;;;;;;;20.67;82.38;100177.70;1849673;77;22364;-73
2021/07/12 20:21:20;;;;;;;4.45;3.92;;;;;;;20.64;82.40;100167.33;1838206;77;21483;-75
2021/07/12 20:23:48;;;;;;;4.90;3.75;;;;;;;20.63;82.30;100167.01;1839426;77;20988;-74
2021/07/12 20:26:14;;;;;;;6.05;3.80;;;;;;;20.58;81.96;100156.35;1844773;77;20979;-74
2021/07/12 20:28:41;;;;;;;5.53;4.25;;;;;;;20.56;81.82;100170.48;1788819;80;21063;-74
2021/07/12 20:31:07;;;;;;;6.10;4.50;;;;;;;20.56;81.71;100181.73;1788818;80;21811;-74
2021/07/12 20:33:34;;;;;;;4.70;4.20;;;;;;;20.57;81.63;100188.23;1817818;77;20925;-74
2021/07/12 20:36:02;;;;;;;5.10;4.08;;;;;;;20.58;81.50;100184.53;1854373;77;21007;-74
2021/07/12 20:38:28;;;;;;;7.33;4.47;;;;;;;20.58;81.45;100190.41;1815025;77;21522;-75
2021/07/12 20:40:55;;;;;;;4.22;3.83;;;;;;;20.60;81.30;100206.31;1788581;80;21000;-74
2021/07/12 20:43:21;;;;;;;5.37;4.30;;;;;;;20.58;81.09;100218.58;1824558;77;22227;-74
2021/07/12 20:45:49;;;;;;;5.50;4.28;;;;;;;20.58;80.94;100207.85;1828415;77;20987;-74
2021/07/12 20:48:16;;;;;;;5.15;4.12;;;;;;;20.59;80.61;100200.12;1820927;78;21396;-74
2021/07/12 20:50:42;;;;;;;6.53;4.30;;;;;;;20.59;80.51;100188.04;1814953;78;21377;-74
2021/07/12 20:53:09;;;;;;;4.83;3.83;;;;;;;20.61;80.47;100177.11;1798052;78;20991;-74
2021/07/12 20:55:36;;;;;;;4.78;4.28;;;;;;;20.56;80.44;100170.48;1819630;78;21908;-74
2021/07/12 20:58:04;;;;;;;6.97;4.22;;;;;;;20.46;80.43;100145.82;1820745;78;21035;-74
2021/07/12 21:00:30;;;;;;;5.92;4.17;;;;;;;20.37;80.58;100146.94;1819316;77;21023;-74
2021/07/12 21:02:57;;;;;;;5.80;4.65;;;;;;;20.28;80.69;100140.03;1813868;77;20976;-74
2021/07/12 21:05:23;;;;;;;6.60;4.58;;;;;;;20.26;80.74;100138.02;1821003;78;21412;-74
2021/07/12 21:07:51;;;;;;;4.97;4.40;;;;;;;20.23;80.83;100147.28;1798516;78;22207;-74
2021/07/12 21:10:21;;;;;;;5.28;4.65;;;;;;;20.23;80.86;100148.63;1798256;78;21862;-74
2021/07/12 21:12:48;;;;;;;5.35;4.85;;;;;;;20.22;80.88;100154.19;1799919;78;21032;-74
2021/07/12 21:15:15;;;;;;;8.00;5.08;;;;;;;20.18;80.97;100143.02;1791193;79;20989;-75
2021/07/12 21:17:41;;;;;;;9.70;5.00;;;;;;;20.13;81.11;100144.59;1790555;78;21083;-74
2021/07/12 21:20:13;;;;;;;8.93;5.37;;;;;;;20.05;81.32;100136.15;1809577;78;21463;-74
2021/07/12 21:22:42;;;;;;;6.70;5.12;;;;;;;19.99;81.52;100130.22;1793056;78;21091;-74
2021/07/12 21:25:09;;;;;;;5.83;5.22;;;;;;;19.97;81.69;100123.68;1801938;79;21416;-74
2021/07/12 21:27:36;;;;;;;7.58;5.75;;;;;;;19.97;81.78;100125.02;1782706;78;20968;-74
2021/07/12 21:30:06;;;;;;;6.40;5.80;;;;;;;19.96;81.86;100115.32;1787622;79;21412;-76
2021/07/12 21:32:33;;;;;;;6.55;5.22;;;;;;;19.95;81.93;100115.00;1824730;78;22690;-74
2021/07/12 21:34:59;;;;;;;6.87;5.25;;;;;;;19.95;81.97;100130.26;1803897;79;20993;-74
2021/07/12 21:37:27;;;;;;;6.92;5.78;;;;;;;19.96;81.92;100118.00;1781495;79;21052;-74
2021/07/12 21:39:53;;;;;;;7.70;5.83;;;;;;;19.94;82.02;100118.70;1780426;79;20948;-74
2021/07/12 21:42:19;;;;;;;6.35;5.53;;;;;;;19.94;82.03;100116.03;1781055;79;21459;-74
2021/07/12 21:44:46;;;;;;;6.65;5.55;;;;;;;19.94;82.02;100109.84;1796468;79;22289;-75
2021/07/12 21:47:13;;;;;;;5.87;5.37;;;;;;;19.94;82.01;100115.20;1783626;79;20937;-74
2021/07/12 21:49:40;;;;;;;7.90;4.92;;;;;;;19.97;81.96;100115.64;1808477;78;20980;-74
2021/07/12 21:52:06;;;;;;;6.33;5.72;;;;;;;20.01;82.02;100114.77;1804082;78;21029;-74
2021/07/12 21:54:33;;;;;;;6.28;5.60;;;;;;;20.05;81.97;100102.63;1790550;78;20949;-74
2021/07/12 21:56:59;;;;;;;6.70;5.67;;;;;;;20.03;81.97;100104.69;1791584;79;21654;-74
2021/07/12 21:59:26;;;;;;;8.30;6.25;;;;;;;20.04;81.94;100102.31;1775786;80;20941;-74
2021/07/12 22:01:53;;;;;;;7.08;6.10;;;;;;;20.04;81.87;100106.34;1776169;80;20945;-74
2021/07/12 22:04:19;;;;;;;7.15;5.65;;;;;;;20.03;81.89;100107.36;1781600;78;21036;-74
2021/07/12 22:06:47;;;;;;;7.12;6.33;;;;;;;20.04;81.93;100115.72;1789046;79;20953;-73
2021/07/12 22:09:13;;;;;;;7.08;6.37;;;;;;;20.07;81.91;100122.55;1794893;78;22201;-74
2021/07/12 22:11:40;;;;;;;8.48;5.97;;;;;;;20.11;81.92;100117.14;1756489;80;20984;-74
2021/07/12 22:14:07;;;;;;;7.15;6.22;;;;;;;20.13;81.91;100121.29;1779231;79;20965;-74
2021/07/12 22:16:34;;;;;;;7.22;5.87;;;;;;;20.12;81.98;100111.59;1786414;79;21013;-74
2021/07/12 22:19:01;;;;;;;7.10;6.03;;;;;;;20.07;82.04;100112.66;1795682;78;20996;-74
2021/07/12 22:21:28;;;;;;;7.10;6.12;;;;;;;20.04;82.12;100109.53;1777014;79;22224;-74
2021/07/12 22:23:54;;;;;;;8.63;6.55;;;;;;;20.03;82.16;100123.45;1783425;79;20980;-74
2021/07/12 22:26:21;;;;;;;9.28;7.03;;;;;;;20.04;82.25;100129.13;1776074;79;20993;-73
2021/07/12 22:28:47;;;;;;;14.87;7.67;;;;;;;20.03;82.30;100123.96;1801697;78;20949;-74
2021/07/12 22:31:14;;;;;;;8.45;7.53;;;;;;;20.01;82.26;100118.28;1803404;78;20944;-74
2021/07/12 22:33:41;;;;;;;9.10;8.20;;;;;;;20.01;82.24;100123.64;1776029;80;21839;-74
2021/07/12 22:36:08;;;;;;;9.30;8.40;;;;;;;20.00;82.17;100126.00;1776592;79;21040;-75
2021/07/12 22:38:34;;;;;;;8.50;7.20;;;;;;;19.96;82.17;100118.00;1801937;78;20985;-74
2021/07/12 22:41:00;;;;;;;8.05;7.25;;;;;;;19.91;82.06;100115.07;1779113;79;21040;-74
2021/07/12 22:43:26;;;;;;;8.25;7.45;;;;;;;19.85;82.07;100106.44;1776081;80;20980;-73
2021/07/12 22:45:53;;;;;;;7.78;7.00;;;;;;;19.85;82.16;100103.75;1778521;79;21883;-74
2021/07/12 22:48:20;;;;;;;8.10;7.37;;;;;;;19.87;82.17;100107.58;1801526;78;20997;-74
2021/07/12 22:50:49;;;;;;;9.55;8.03;;;;;;;19.86;82.11;100113.45;1807863;79;21004;-73
2021/07/12 22:53:19;;;;;;;7.80;7.08;;;;;;;19.85;82.08;100118.50;1804281;79;20953;-73
2021/07/12 22:55:46;;;;;;;8.08;7.28;;;;;;;19.86;82.03;100117.47;1788377;79;20953;-73
2021/07/12 22:58:13;;;;;;;8.18;7.33;;;;;;;19.84;81.98;100124.87;1806997;78;21845;-73
2021/07/12 23:00:40;;;;;;;8.53;7.65;;;;;;;19.80;81.95;100130.81;1805605;79;20980;-73
2021/07/12 23:03:07;;;;;;;10.00;8.20;;;;;;;19.77;81.92;100140.55;1780203;79;20968;-73
2021/07/12 23:05:33;;;;;;;9.05;7.50;;;;;;;19.76;81.85;100142.40;1776071;80;21384;-73
2021/07/12 23:08:00;;;;;;;9.28;8.13;;;;;;;19.73;81.84;100138.77;1787387;77;20993;-74
2021/07/12 23:10:27;;;;;;;9.35;7.58;;;;;;;19.68;81.76;100146.00;1792077;78;22173;-74
2021/07/12 23:12:54;;;;;;;9.00;8.10;;;;;;;19.66;81.75;100143.20;1791449;77;20988;-74
2021/07/12 23:15:23;;;;;;;9.65;7.85;;;;;;;19.64;81.73;100142.56;1791070;78;21133;-72
2021/07/12 23:17:54;;;;;;;9.05;8.10;;;;;;;19.61;81.74;100137.58;1806503;78;21055;-72
2021/07/12 23:20:24;;;;;;;9.58;8.15;;;;;;;19.60;81.78;100149.32;1809058;77;21047;-73
2021/07/12 23:22:52;;;;;;;9.10;8.20;;;;;;;19.61;81.81;100148.30;1789703;77;21986;-73
2021/07/12 23:25:19;;;;;;;9.58;8.03;;;;;;;19.62;81.78;100147.28;1795353;78;21000;-73
2021/07/12 23:27:47;;;;;;;10.60;8.20;;;;;;;19.62;81.78;100155.31;1790482;78;20956;-73
2021/07/12 23:30:16;;;;;;;11.78;8.85;;;;;;;19.62;81.82;100156.66;1811780;77;21431;-73
2021/07/12 23:32:44;;;;;;;10.60;9.55;;;;;;;19.62;81.81;100164.19;1815121;77;20940;-73
2021/07/12 23:35:15;;;;;;;9.83;8.83;;;;;;;19.62;81.74;100171.39;1789538;78;21818;-73
2021/07/12 23:37:42;;;;;;;10.00;8.95;;;;;;;19.62;81.74;100174.90;1794798;77;20979;-75
2021/07/12 23:40:13;;;;;;;13.65;9.43;;;;;;;19.60;81.71;100180.13;1808209;77;21039;-73
2021/07/12 23:42:40;;;;;;;11.00;10.00;;;;;;;19.57;81.79;100175.12;1821010;78;21431;-73
2021/07/12 23:45:08;;;;;;;10.20;9.20;;;;;;;19.56;81.76;100193.05;1798175;77;20944;-74
2021/07/12 23:47:34;;;;;;;12.58;9.80;;;;;;;19.55;81.76;100198.05;1802827;77;21829;-74
2021/07/12 23:50:01;;;;;;;9.60;8.63;;;;;;;19.56;81.80;100194.89;1815859;77;21027;-73
2021/07/12 23:52:27;;;;;;;11.00;8.73;;;;;;;19.57;81.80;100192.02;1820855;78;21466;-73
2021/07/12 23:54:55;;;;;;;10.82;9.28;;;;;;;19.57;81.81;100192.02;1818738;78;21048;-74
2021/07/12 23:57:22;;;;;;;11.33;8.68;;;;;;;19.53;81.73;100198.75;1821193;78;20980;-72
2021/07/12 23:59:48;;;;;;;10.85;9.03;;;;;;;19.47;81.69;100198.64;1832977;77;22175;-72
